Time;durP1;ratioP1;P1;durP2;ratioP2;P2;SDS_P1;SDS_P2;PMS_P1;PMS_P2;Temp;Humidity;BMP_temperature;BMP_pressure;BME280_temperature;BME280_humidity;BME280_pressure;Samples;Min_cycle;Max_cycle;Signal;HPM_P1;HPM_P2
2022/06/02 00:00:41;;;;;;;20.50;13.43;;;9.20;99.90;;;;;;5051486;28;20202;-61
2022/06/02 00:03:23;;;;;;;20.17;13.40;;;9.20;99.90;;;;;;5051250;28;20282;-61
2022/06/02 00:06:05;;;;;;;18.57;13.40;;;9.20;99.90;;;;;;5051628;28;20211;-61
2022/06/02 00:08:44;;;;;;;22.67;14.20;;;9.20;99.90;;;;;;5051478;28;20207;-61
2022/06/02 00:11:29;;;;;;;22.03;14.07;;;9.20;99.90;;;;;;5051363;28;20224;-61
2022/06/02 00:14:06;;;;;;;19.20;14.33;;;9.20;99.90;;;;;;5050906;28;20278;-61
2022/06/02 00:16:50;;;;;;;19.97;13.73;;;9.20;99.90;;;;;;5050867;28;20273;-61
2022/06/02 00:19:27;;;;;;;18.90;13.73;;;9.20;99.90;;;;;;5051234;28;20212;-61
2022/06/02 00:21:59;;;;;;;19.90;13.67;;;9.20;99.90;;;;;;5051338;28;20293;-61
2022/06/02 00:24:34;;;;;;;20.33;14.10;;;9.10;99.90;;;;;;5051000;28;20225;-61
2022/06/02 00:27:06;;;;;;;18.77;13.23;;;9.10;99.90;;;;;;5050878;28;20211;-61
2022/06/02 00:29:43;;;;;;;19.67;12.53;;;9.00;99.90;;;;;;5051150;28;20201;-61
2022/06/02 00:32:14;;;;;;;18.60;13.47;;;9.00;99.90;;;;;;5050835;28;20281;-61
2022/06/02 00:34:48;;;;;;;21.03;13.77;;;9.00;99.90;;;;;;5051010;28;20720;-61
2022/06/02 00:37:25;;;;;;;18.70;13.27;;;8.90;99.90;;;;;;5050729;28;20202;-61
2022/06/02 00:39:54;;;;;;;19.67;13.53;;;8.80;99.90;;;;;;5051252;28;20235;-61
2022/06/02 00:42:39;;;;;;;21.30;14.63;;;8.80;99.90;;;;;;5050868;28;20210;-61
2022/06/02 00:45:09;;;;;;;21.17;14.47;;;8.80;99.90;;;;;;5051179;28;20211;-61
2022/06/02 00:47:53;;;;;;;20.73;14.23;;;8.70;99.90;;;;;;5051577;28;20265;-61
2022/06/02 00:50:38;;;;;;;22.53;15.60;;;8.70;99.90;;;;;;5054607;28;20621;-61
2022/06/02 00:53:11;;;;;;;23.73;15.33;;;8.70;99.90;;;;;;5054271;28;20853;-61
2022/06/02 00:58:35;;;;;;;23.23;15.40;;;8.60;99.90;;;;;;5054412;28;20205;-61
2022/06/02 01:01:09;;;;;;;21.67;15.17;;;8.60;99.90;;;;;;5054417;28;20673;-60
2022/06/02 01:03:41;;;;;;;22.20;15.60;;;8.60;99.90;;;;;;5054582;28;20223;-60
2022/06/02 01:06:35;;;;;;;25.00;17.13;;;8.50;99.90;;;;;;5053779;28;20218;-61
2022/06/02 01:09:25;;;;;;;23.07;16.37;;;8.50;99.90;;;;;;5054410;28;20206;-61
2022/06/02 01:12:02;;;;;;;27.13;16.67;;;8.40;99.90;;;;;;5053963;28;20627;-61
2022/06/02 01:14:42;;;;;;;23.17;15.50;;;8.40;99.90;;;;;;5053804;28;20593;-61
2022/06/02 01:17:19;;;;;;;27.27;17.30;;;8.40;99.90;;;;;;5053794;28;20267;-61
2022/06/02 01:19:57;;;;;;;24.57;16.60;;;8.30;99.90;;;;;;5054193;28;20232;-61
2022/06/02 01:22:55;;;;;;;26.40;16.93;;;8.30;99.90;;;;;;5053431;28;20695;-61
2022/06/02 01:25:44;;;;;;;27.10;17.30;;;8.20;99.90;;;;;;5054058;28;20622;-61
2022/06/02 01:28:35;;;;;;;21.70;15.07;;;8.20;99.90;;;;;;5053687;28;20279;-60
2022/06/02 01:31:12;;;;;;;27.03;17.50;;;8.20;99.90;;;;;;5053932;28;20275;-61
2022/06/02 01:33:49;;;;;;;28.37;18.63;;;8.10;99.90;;;;;;5054305;28;20235;-61
2022/06/02 01:36:23;;;;;;;25.00;17.23;;;8.10;99.90;;;;;;5053373;28;20201;-61
2022/06/02 01:39:04;;;;;;;29.30;17.73;;;8.10;99.90;;;;;;5053556;28;20300;-61
2022/06/02 01:41:45;;;;;;;27.73;17.73;;;8.10;99.90;;;;;;5053539;28;20206;-61
2022/06/02 01:44:16;;;;;;;25.50;16.87;;;8.10;99.90;;;;;;5053583;28;20230;-61
2022/06/02 01:46:49;;;;;;;31.20;16.93;;;8.00;99.90;;;;;;5052989;28;20834;-61
2022/06/02 01:49:34;;;;;;;29.67;17.17;;;8.00;99.90;;;;;;5053446;28;20671;-61
2022/06/02 01:52:15;;;;;;;24.83;17.83;;;8.00;99.90;;;;;;5053076;28;20838;-61
2022/06/02 01:54:50;;;;;;;28.07;18.30;;;8.00;99.90;;;;;;5053464;28;20225;-61
2022/06/02 01:57:38;;;;;;;24.43;17.63;;;7.90;99.90;;;;;;5052996;28;20297;-61
2022/06/02 02:00:10;;;;;;;26.07;17.20;;;7.90;99.90;;;;;;5052978;28;20251;-61
2022/06/02 02:02:50;;;;;;;29.60;17.90;;;7.90;99.90;;;;;;5053257;28;20260;-61
2022/06/02 02:05:26;;;;;;;27.23;17.33;;;7.90;99.90;;;;;;5053316;28;20259;-61
2022/06/02 02:08:19;;;;;;;27.90;17.83;;;7.80;99.90;;;;;;5052715;28;20209;-61
2022/06/02 02:10:58;;;;;;;28.60;17.27;;;7.80;99.90;;;;;;5052923;28;20221;-61
2022/06/02 02:13:35;;;;;;;25.47;16.67;;;7.70;99.90;;;;;;5052706;28;20572;-60
2022/06/02 02:16:19;;;;;;;29.13;18.20;;;7.70;99.90;;;;;;5052626;28;20229;-61
2022/06/02 02:18:54;;;;;;;30.00;19.03;;;7.70;99.90;;;;;;5052766;28;20209;-60
2022/06/02 02:21:28;;;;;;;31.17;19.57;;;7.60;99.90;;;;;;5053105;28;20205;-60
2022/06/02 02:24:03;;;;;;;30.60;19.87;;;7.60;99.90;;;;;;5052570;28;20225;-60
2022/06/02 02:26:39;;;;;;;29.53;18.77;;;7.60;99.90;;;;;;5052338;28;20205;-61
2022/06/02 02:29:17;;;;;;;33.70;20.27;;;7.60;99.90;;;;;;5052843;28;20251;-60
2022/06/02 02:31:51;;;;;;;32.83;20.17;;;7.50;99.90;;;;;;5052614;28;20226;-61
2022/06/02 02:34:31;;;;;;;33.10;20.77;;;7.50;99.90;;;;;;5052498;28;20224;-61
2022/06/02 02:37:03;;;;;;;39.60;19.87;;;7.50;99.90;;;;;;5052442;28;20589;-61
2022/06/02 02:39:39;;;;;;;35.17;21.27;;;7.50;99.90;;;;;;5052595;28;20210;-60
2022/06/02 02:42:13;;;;;;;36.30;20.97;;;7.50;99.90;;;;;;5052610;28;20212;-61
2022/06/02 02:44:48;;;;;;;35.63;21.27;;;7.50;99.90;;;;;;5051144;28;20220;-61
2022/06/02 02:47:21;;;;;;;37.93;22.07;;;7.40;99.90;;;;;;5052192;28;20213;-59
2022/06/02 02:49:53;;;;;;;36.07;20.67;;;7.50;99.90;;;;;;5052363;28;20209;-60
2022/06/02 02:52:24;;;;;;;37.00;21.93;;;7.40;99.90;;;;;;5051840;28;20282;-61
2022/06/02 02:54:57;;;;;;;33.80;20.67;;;7.40;99.90;;;;;;5052519;28;20659;-61
2022/06/02 02:57:36;;;;;;;34.00;20.83;;;7.40;99.90;;;;;;5051754;28;20235;-60
2022/06/02 03:00:10;;;;;;;36.93;21.23;;;7.40;99.90;;;;;;5052374;28;20250;-61
2022/06/02 03:02:46;;;;;;;35.97;21.10;;;7.40;99.90;;;;;;5052093;28;20251;-61
2022/06/02 03:05:22;;;;;;;34.23;19.80;;;7.40;99.90;;;;;;5052100;28;20214;-61
2022/06/02 03:07:49;;;;;;;33.20;19.77;;;7.30;99.90;;;;;;5052042;28;20583;-61
2022/06/02 03:10:19;;;;;;;34.43;21.07;;;7.30;99.90;;;;;;5051340;28;20279;-61
2022/06/02 03:13:02;;;;;;;34.20;21.60;;;7.30;99.90;;;;;;5051621;28;20256;-61
2022/06/02 03:15:37;;;;;;;37.97;21.53;;;7.30;99.90;;;;;;5051869;28;20209;-61
2022/06/02 03:18:30;;;;;;;32.47;19.83;;;7.30;99.90;;;;;;5051840;28;20262;-61
2022/06/02 03:21:09;;;;;;;35.93;20.53;;;7.30;99.90;;;;;;5051595;28;20255;-61
2022/06/02 03:24:10;;;;;;;35.40;20.10;;;7.30;99.90;;;;;;5051809;28;20221;-61
2022/06/02 03:26:50;;;;;;;31.27;19.43;;;7.30;99.90;;;;;;5051441;28;20251;-61
2022/06/02 03:29:24;;;;;;;31.50;19.83;;;7.20;99.90;;;;;;5051912;28;20209;-61
2022/06/02 03:31:59;;;;;;;37.07;22.10;;;7.20;99.90;;;;;;5051491;28;20221;-61
2022/06/02 03:34:35;;;;;;;35.13;20.93;;;7.20;99.90;;;;;;5051922;28;20229;-60
2022/06/02 03:37:29;;;;;;;37.57;21.93;;;7.20;99.90;;;;;;5051320;28;20227;-59
2022/06/02 03:40:16;;;;;;;38.33;22.47;;;7.20;99.90;;;;;;5051798;28;20259;-61
2022/06/02 03:42:49;;;;;;;40.47;23.17;;;7.20;99.90;;;;;;5051824;28;20206;-61
2022/06/02 03:45:41;;;;;;;41.10;23.17;;;7.30;99.90;;;;;;5051661;28;20210;-61
2022/06/02 03:48:44;;;;;;;38.93;21.93;;;7.30;99.90;;;;;;5051123;28;20205;-61
2022/06/02 03:51:19;;;;;;;46.53;22.87;;;7.30;99.90;;;;;;5051491;28;20201;-60
2022/06/02 03:54:01;;;;;;;36.27;21.77;;;7.30;99.90;;;;;;5051227;28;20706;-60
2022/06/02 03:56:40;;;;;;;38.63;22.37;;;7.30;99.90;;;;;;5051275;28;20209;-61
2022/06/02 03:59:24;;;;;;;42.37;23.03;;;7.30;99.90;;;;;;5051466;28;20262;-61
2022/06/02 04:01:58;;;;;;;42.57;24.13;;;7.30;99.90;;;;;;5051288;28;20669;-61
2022/06/02 04:04:38;;;;;;;41.07;23.60;;;7.40;99.90;;;;;;5051472;28;20229;-61
2022/06/02 04:07:23;;;;;;;41.63;24.37;;;7.40;99.90;;;;;;5050991;28;20205;-61
2022/06/02 04:10:01;;;;;;;44.30;23.80;;;7.50;99.90;;;;;;5051619;28;20263;-61
2022/06/02 04:15:54;;;;;;;41.20;23.47;;;7.50;99.90;;;;;;5045708;28;20841;-61
2022/06/02 04:18:31;;;;;;;45.10;24.23;;;7.60;99.90;;;;;;5051240;28;20214;-61
2022/06/02 04:21:12;;;;;;;42.67;23.83;;;7.60;99.90;;;;;;5051164;28;20202;-61
2022/06/02 04:24:15;;;;;;;46.43;23.87;;;7.70;99.90;;;;;;5055059;28;20296;-61
2022/06/02 04:26:57;;;;;;;44.87;24.53;;;7.70;99.90;;;;;;5054753;28;20213;-61
2022/06/02 04:29:37;;;;;;;45.57;23.67;;;7.80;99.90;;;;;;5054991;28;20209;-61
2022/06/02 04:32:16;;;;;;;41.37;23.83;;;7.90;99.90;;;;;;5054693;28;20226;-61
2022/06/02 04:34:54;;;;;;;49.00;25.37;;;7.90;99.90;;;;;;5054604;28;20965;-61
2022/06/02 04:37:32;;;;;;;46.13;25.50;;;7.90;99.90;;;;;;5054773;28;20201;-61
2022/06/02 04:40:09;;;;;;;46.63;26.57;;;8.00;99.90;;;;;;5064425;28;20237;-62
2022/06/02 04:42:46;;;;;;;46.23;25.53;;;8.00;99.90;;;;;;5073752;28;20290;-61
2022/06/02 04:45:22;;;;;;;46.27;24.27;;;8.10;99.90;;;;;;5074846;28;20215;-62
2022/06/02 04:47:59;;;;;;;48.70;24.57;;;8.20;99.90;;;;;;5074434;28;20214;-61
2022/06/02 04:50:34;;;;;;;45.20;24.70;;;8.20;99.90;;;;;;5075350;28;20201;-62
2022/06/02 04:53:09;;;;;;;46.43;24.87;;;8.30;99.90;;;;;;5074772;28;20264;-62
2022/06/02 04:55:48;;;;;;;44.87;24.20;;;8.40;99.90;;;;;;5074660;28;20306;-61
2022/06/02 04:58:23;;;;;;;47.53;25.43;;;8.50;99.90;;;;;;5073811;28;20210;-62
2022/06/02 05:01:00;;;;;;;48.00;25.90;;;8.60;99.90;;;;;;5074476;28;20252;-64
2022/06/02 05:03:38;;;;;;;45.43;23.97;;;8.70;99.90;;;;;;5073671;28;20227;-62
2022/06/02 05:06:16;;;;;;;48.17;25.13;;;8.80;99.90;;;;;;5074253;28;20202;-62
2022/06/02 05:09:00;;;;;;;53.30;26.23;;;8.90;99.90;;;;;;5074457;28;20216;-62
2022/06/02 05:11:40;;;;;;;49.17;24.83;;;9.00;99.90;;;;;;5073849;28;20210;-62
2022/06/02 05:14:18;;;;;;;44.00;24.97;;;9.00;99.90;;;;;;5074026;28;20242;-62
2022/06/02 05:16:55;;;;;;;48.37;25.40;;;9.10;99.90;;;;;;5073621;28;20213;-62
2022/06/02 05:19:49;;;;;;;48.63;26.57;;;9.20;99.90;;;;;;5074036;28;20210;-62
2022/06/02 05:22:45;;;;;;;54.70;27.40;;;9.30;99.90;;;;;;5069594;28;20207;-62
2022/06/02 05:25:39;;;;;;;50.20;25.63;;;9.40;99.90;;;;;;5073770;28;20229;-63
2022/06/02 05:28:49;;;;;;;51.77;24.90;;;9.50;99.90;;;;;;5065343;28;20208;-62
2022/06/02 05:31:49;;;;;;;48.60;26.20;;;9.60;99.90;;;;;;5073574;28;20208;-62
2022/06/02 05:34:42;;;;;;;51.37;28.00;;;9.70;99.90;;;;;;5072298;28;20635;-62
2022/06/02 05:37:21;;;;;;;47.30;25.73;;;9.70;99.90;;;;;;5073258;28;20210;-62
2022/06/02 05:40:05;;;;;;;45.77;25.87;;;9.80;99.90;;;;;;5072786;28;20204;-62
2022/06/02 05:42:43;;;;;;;45.87;26.43;;;9.90;99.90;;;;;;5073187;28;20232;-62
2022/06/02 05:45:25;;;;;;;42.30;25.03;;;9.90;99.90;;;;;;5072552;28;20670;-62
2022/06/02 05:48:09;;;;;;;42.60;24.47;;;10.00;99.90;;;;;;5072526;28;20545;-61
2022/06/02 05:50:42;;;;;;;43.20;25.60;;;10.00;99.90;;;;;;5072688;28;20302;-65
2022/06/02 05:53:21;;;;;;;48.17;26.27;;;10.00;99.90;;;;;;5072743;28;20285;-63
2022/06/02 05:55:58;;;;;;;49.47;26.57;;;10.10;99.90;;;;;;5072611;28;20216;-64
2022/06/02 05:58:49;;;;;;;45.20;25.73;;;10.20;99.90;;;;;;5072456;28;20303;-62
2022/06/02 06:01:27;;;;;;;43.63;24.83;;;10.10;99.90;;;;;;5073005;28;20240;-62
2022/06/02 06:04:28;;;;;;;41.10;23.80;;;10.20;99.90;;;;;;5072221;28;20319;-62
2022/06/02 06:07:00;;;;;;;38.80;23.13;;;10.30;99.90;;;;;;5033464;28;20215;-63
2022/06/02 06:09:42;;;;;;;36.20;22.37;;;10.40;99.90;;;;;;5072250;28;20636;-62
2022/06/02 06:12:37;;;;;;;32.17;21.23;;;10.50;99.90;;;;;;5072109;28;20274;-62
2022/06/02 06:15:15;;;;;;;30.93;20.47;;;10.60;99.90;;;;;;5072121;28;20241;-62
2022/06/02 06:17:48;;;;;;;29.10;19.03;;;10.60;99.90;;;;;;5072220;28;20301;-60
2022/06/02 06:20:38;;;;;;;29.57;18.37;;;10.70;99.90;;;;;;5072003;28;20212;-60
2022/06/02 06:23:20;;;;;;;27.03;18.37;;;10.80;99.90;;;;;;5072496;28;20228;-59
2022/06/02 06:25:59;;;;;;;25.70;17.33;;;10.90;99.90;;;;;;5071797;28;20292;-60
2022/06/02 06:28:32;;;;;;;25.67;17.40;;;11.00;99.90;;;;;;5072528;28;20744;-59
2022/06/02 06:31:06;;;;;;;28.53;17.67;;;11.00;99.90;;;;;;5072428;28;20266;-61
2022/06/02 06:33:52;;;;;;;27.73;17.00;;;10.90;99.90;;;;;;5071628;28;20286;-61
2022/06/02 06:36:39;;;;;;;24.27;16.90;;;11.00;99.90;;;;;;5071827;28;20351;-60
2022/06/02 06:39:17;;;;;;;21.70;16.03;;;11.00;99.90;;;;;;5071384;28;20565;-61
2022/06/02 06:42:00;;;;;;;21.90;16.37;;;11.20;99.90;;;;;;5072153;28;20208;-59
2022/06/02 06:44:34;;;;;;;25.97;17.27;;;11.30;99.90;;;;;;5071690;28;20229;-60
2022/06/02 06:47:09;;;;;;;25.23;17.13;;;11.40;99.90;;;;;;5070849;28;20205;-61
2022/06/02 06:49:50;;;;;;;27.07;17.47;;;11.50;99.90;;;;;;5071408;28;20402;-61
2022/06/02 06:52:33;;;;;;;23.80;17.03;;;11.70;99.90;;;;;;5071563;28;20319;-62
2022/06/02 06:55:07;;;;;;;23.67;16.40;;;11.70;99.90;;;;;;5071854;28;20221;-62
2022/06/02 06:57:43;;;;;;;24.70;16.30;;;11.80;99.90;;;;;;5071134;28;20204;-62
2022/06/02 07:00:19;;;;;;;32.77;20.57;;;11.80;99.90;;;;;;5071333;28;20577;-62
2022/06/02 07:02:57;;;;;;;26.87;17.60;;;11.80;99.90;;;;;;5071433;28;20200;-61
2022/06/02 07:05:34;;;;;;;20.77;15.30;;;11.90;99.90;;;;;;5071796;28;20210;-62
2022/06/02 07:08:12;;;;;;;21.90;15.03;;;12.00;99.90;;;;;;5070980;28;20221;-59
2022/06/02 07:10:44;;;;;;;25.60;15.20;;;12.20;99.90;;;;;;5070823;28;20699;-59
2022/06/02 07:13:18;;;;;;;21.93;14.83;;;12.50;99.90;;;;;;5071333;28;20856;-61
2022/06/02 07:15:52;;;;;;;15.63;12.60;;;12.70;99.90;;;;;;5070944;28;20222;-62
2022/06/02 07:18:31;;;;;;;18.70;13.20;;;13.00;99.90;;;;;;5071276;28;20209;-62
2022/06/02 07:21:05;;;;;;;15.43;11.83;;;13.30;99.90;;;;;;5070860;28;20204;-61
2022/06/02 07:23:44;;;;;;;17.10;11.20;;;13.50;99.90;;;;;;5071531;28;20293;-61
2022/06/02 07:26:35;;;;;;;12.10;9.63;;;13.50;99.90;;;;;;5071130;28;20204;-62
2022/06/02 07:29:24;;;;;;;16.97;10.73;;;13.50;67.80;;;;;;5070921;28;20208;-61
2022/06/02 07:32:32;;;;;;;13.50;9.83;;;13.40;79.80;;;;;;5071659;28;20265;-62
2022/06/02 07:35:28;;;;;;;11.53;9.27;;;13.40;65.00;;;;;;5034437;28;20597;-63
2022/06/02 07:38:03;;;;;;;12.73;8.07;;;13.30;94.00;;;;;;5070680;28;20212;-62
2022/06/02 07:40:43;;;;;;;8.57;7.07;;;13.40;99.90;;;;;;5070797;28;20220;-62
2022/06/02 07:43:40;;;;;;;9.07;7.10;;;13.40;98.70;;;;;;5071241;28;20217;-63
2022/06/02 07:46:27;;;;;;;10.80;8.47;;;13.40;93.60;;;;;;5070233;28;20205;-63
2022/06/02 07:49:13;;;;;;;10.70;7.80;;;13.40;55.90;;;;;;5071010;28;20604;-63
2022/06/02 07:51:42;;;;;;;12.20;7.50;;;13.50;90.10;;;;;;5070805;28;20213;-62
2022/06/02 07:54:31;;;;;;;11.60;7.80;;;13.50;63.20;;;;;;5070920;28;20231;-59
2022/06/02 07:57:09;;;;;;;10.43;7.57;;;13.60;52.00;;;;;;5072295;28;20204;-61
2022/06/02 07:59:50;;;;;;;10.27;7.63;;;13.60;33.40;;;;;;5074850;28;20208;-61
2022/06/02 08:02:32;;;;;;;10.10;8.00;;;13.60;29.60;;;;;;5075097;28;20269;-63
2022/06/02 08:05:07;;;;;;;9.73;7.80;;;13.70;36.80;;;;;;5074540;28;20703;-63
2022/06/02 08:07:41;;;;;;;10.53;8.53;;;13.80;58.00;;;;;;5074679;28;20693;-62
2022/06/02 08:10:17;;;;;;;11.47;8.60;;;13.90;56.50;;;;;;5075256;28;20329;-62
2022/06/02 08:12:50;;;;;;;10.73;9.10;;;13.90;72.10;;;;;;5075125;28;20274;-61
2022/06/02 08:15:33;;;;;;;11.60;9.70;;;14.00;79.60;;;;;;5074515;28;20248;-60
2022/06/02 08:18:05;;;;;;;10.53;8.73;;;14.20;99.90;;;;;;5074614;28;20204;-62
2022/06/02 08:20:49;;;;;;;10.87;7.77;;;14.40;7.90;;;;;;5074511;28;20664;-62
2022/06/02 08:23:31;;;;;;;6.87;6.07;;;14.60;19.30;;;;;;5074491;28;20647;-60
2022/06/02 08:26:09;;;;;;;6.57;5.57;;;14.60;99.90;;;;;;5074168;28;20205;-60
2022/06/02 08:28:56;;;;;;;7.73;5.17;;;14.90;1.00;;;;;;5074071;28;20271;-59
2022/06/02 08:31:42;;;;;;;6.17;4.80;;;15.10;99.90;;;;;;5074653;28;20238;-60
2022/06/02 08:34:15;;;;;;;6.60;4.77;;;15.40;99.90;;;;;;5073880;28;20258;-59
2022/06/02 08:36:55;;;;;;;9.30;4.53;;;15.60;1.00;;;;;;5074323;28;20262;-57
2022/06/02 08:39:41;;;;;;;7.73;6.50;;;15.70;99.90;;;;;;5074035;28;20208;-59
2022/06/02 08:42:26;;;;;;;5.03;4.53;;;15.80;1.00;;;;;;5074183;28;20204;-58
2022/06/02 08:45:30;;;;;;;6.33;5.13;;;15.90;8.00;;;;;;5074565;28;20278;-59
2022/06/02 08:48:38;;;;;;;6.20;4.80;;;16.00;67.10;;;;;;5073874;28;20262;-59
2022/06/02 08:51:38;;;;;;;6.57;4.70;;;15.80;1.00;;;;;;5036609;28;20209;-59
2022/06/02 08:54:54;;;;;;;6.37;4.83;;;15.50;1.00;;;;;;5073996;28;20233;-59
2022/06/02 08:58:11;;;;;;;6.10;5.27;;;15.60;1.00;;;;;;5073446;28;20205;-60
2022/06/02 09:00:48;;;;;;;5.47;4.20;;;16.00;1.00;;;;;;5031722;28;20210;-59
2022/06/02 09:03:48;;;;;;;6.03;4.63;;;16.10;1.00;;;;;;5066971;28;20308;-60
2022/06/02 09:06:54;;;;;;;7.17;4.40;;;16.20;1.00;;;;;;5050612;28;20205;-60
2022/06/02 09:09:53;;;;;;;5.10;4.23;;;16.20;99.90;;;;;;5072263;28;20250;-60
2022/06/02 09:12:52;;;;;;;5.77;4.60;;;15.90;99.90;;;;;;5073956;28;20262;-61
2022/06/02 09:15:39;;;;;;;6.00;4.80;;;15.60;99.90;;;;;;5069823;28;20220;-60
2022/06/02 09:18:17;;;;;;;6.73;4.20;;;15.30;99.90;;;;;;5050161;28;20209;-60
2022/06/02 09:21:01;;;;;;;5.27;4.30;;;15.10;1.00;;;;;;5073628;28;20211;-61
2022/06/02 09:23:45;;;;;;;7.00;4.97;;;14.80;99.90;;;;;;5073328;28;20224;-61
2022/06/02 09:26:39;;;;;;;7.53;5.90;;;14.80;1.00;;;;;;5073072;28;20402;-61
2022/06/02 09:29:21;;;;;;;5.70;4.83;;;14.80;1.00;;;;;;5051140;28;20209;-60
2022/06/02 09:32:29;;;;;;;6.30;5.00;;;14.90;99.90;;;;;;5073574;28;20200;-60
2022/06/02 09:35:13;;;;;;;4.07;3.67;;;15.10;99.90;;;;;;5057566;28;20268;-55
2022/06/02 09:38:14;;;;;;;6.83;4.23;;;15.10;99.90;;;;;;5072912;28;20204;-62
2022/06/02 09:40:47;;;;;;;4.93;4.13;;;15.40;99.90;;;;;;5072166;28;20231;-61
2022/06/02 09:44:01;;;;;;;5.10;4.07;;;15.80;1.00;;;;;;5073094;28;20278;-62
2022/06/02 09:47:16;;;;;;;4.03;3.63;;;16.00;99.90;;;;;;5059300;28;20208;-62
2022/06/02 09:50:16;;;;;;;4.10;3.30;;;15.90;99.90;;;;;;5072465;28;20709;-62
2022/06/02 09:53:06;;;;;;;4.47;3.40;;;16.10;99.90;;;;;;5054971;28;20205;-63
2022/06/02 09:55:39;;;;;;;3.60;3.00;;;16.30;99.90;;;;;;5073135;28;20205;-62
2022/06/02 09:58:54;;;;;;;3.87;2.90;;;16.60;99.90;;;;;;5071963;28;20642;-58
2022/06/02 10:01:41;;;;;;;3.17;2.87;;;16.80;99.90;;;;;;5030250;28;20210;-62
2022/06/02 10:04:36;;;;;;;5.30;3.00;;;17.20;99.90;;;;;;5029779;28;20227;-63
2022/06/02 10:07:33;;;;;;;3.27;2.97;;;17.40;99.90;;;;;;5067452;28;20212;-64
2022/06/02 10:10:45;;;;;;;3.33;2.87;;;17.50;99.90;;;;;;5051759;28;20264;-63
2022/06/02 10:13:38;;;;;;;4.43;3.03;;;17.40;99.90;;;;;;5052541;28;20279;-62
2022/06/02 10:16:44;;;;;;;3.80;3.10;;;17.30;99.90;;;;;;5051291;28;20263;-65
2022/06/02 10:19:36;;;;;;;3.73;3.10;;;17.40;99.90;;;;;;5051770;28;20275;-64
2022/06/02 10:22:11;;;;;;;5.80;2.87;;;17.70;99.90;;;;;;5051602;28;20648;-63
2022/06/02 10:25:02;;;;;;;3.87;3.30;;;17.80;99.90;;;;;;5052557;28;20232;-61
2022/06/02 10:27:54;;;;;;;3.33;2.57;;;17.90;99.90;;;;;;5051461;28;20213;-61
2022/06/02 10:30:49;;;;;;;3.87;2.80;;;18.00;99.90;;;;;;5050677;28;20264;-62
2022/06/02 10:33:46;;;;;;;5.20;3.00;;;17.90;99.90;;;;;;5052119;28;20229;-62
2022/06/02 10:36:39;;;;;;;4.33;3.30;;;18.10;99.90;;;;;;5052668;28;20210;-60
2022/06/02 10:39:24;;;;;;;4.07;3.00;;;18.00;99.90;;;;;;5052274;28;20213;-60
2022/06/02 10:42:04;;;;;;;3.57;2.90;;;18.10;99.90;;;;;;5052309;28;20205;-61
2022/06/02 10:44:57;;;;;;;9.93;3.50;;;18.00;99.90;;;;;;5051966;28;20225;-60
2022/06/02 10:47:53;;;;;;;3.73;3.17;;;17.70;99.90;;;;;;5051641;28;20205;-61
2022/06/02 10:50:35;;;;;;;4.90;3.40;;;17.90;99.90;;;;;;5051799;28;20891;-58
2022/06/02 10:53:29;;;;;;;3.40;3.10;;;18.20;99.90;;;;;;5051563;28;20210;-61
2022/06/02 10:56:26;;;;;;;4.47;3.00;;;18.40;99.90;;;;;;5071337;28;20426;-62
2022/06/02 10:59:33;;;;;;;5.07;3.00;;;18.20;99.90;;;;;;5071005;28;20201;-62
2022/06/02 11:02:38;;;;;;;4.20;3.27;;;18.10;99.90;;;;;;5071145;28;20222;-61
2022/06/02 11:05:56;;;;;;;3.60;3.30;;;17.80;99.90;;;;;;5071083;28;20220;-62
2022/06/02 11:09:08;;;;;;;5.33;3.40;;;17.40;99.90;;;;;;5071284;28;20209;-62
2022/06/02 11:12:16;;;;;;;6.43;3.03;;;17.20;99.90;;;;;;5070973;28;20204;-61
2022/06/02 11:15:18;;;;;;;3.93;2.90;;;17.10;99.90;;;;;;5071402;28;20239;-62
2022/06/02 11:18:31;;;;;;;3.53;2.83;;;17.30;99.90;;;;;;5071242;28;20257;-63
2022/06/02 11:21:25;;;;;;;11.57;3.10;;;17.50;99.90;;;;;;5028634;28;20212;-61
2022/06/02 11:24:05;;;;;;;5.00;2.83;;;17.90;99.90;;;;;;5071226;28;20298;-62
2022/06/02 11:27:01;;;;;;;3.50;2.60;;;18.10;99.90;;;;;;5070714;28;20738;-60
2022/06/02 11:30:03;;;;;;;3.20;2.60;;;18.60;99.90;;;;;;5068538;28;20282;-58
2022/06/02 11:33:13;;;;;;;3.90;2.90;;;18.70;99.90;;;;;;5070470;28;20257;-60
2022/06/02 11:36:10;;;;;;;4.43;2.80;;;18.30;99.90;;;;;;5059750;28;20258;-60
2022/06/02 11:39:06;;;;;;;3.57;3.17;;;18.00;99.90;;;;;;5070903;28;20205;-60
2022/06/02 11:41:41;;;;;;;3.37;3.03;;;17.70;99.90;;;;;;5070969;28;20254;-64
2022/06/02 11:44:13;;;;;;;3.30;3.00;;;17.50;99.90;;;;;;5071072;28;20273;-61
2022/06/02 11:47:12;;;;;;;3.50;2.60;;;17.50;99.90;;;;;;5071001;28;20205;-61
2022/06/02 11:50:11;;;;;;;3.10;2.77;;;17.70;99.90;;;;;;5070118;28;20208;-62
2022/06/02 11:53:09;;;;;;;4.10;3.40;;;18.00;99.90;;;;;;5066459;28;20205;-62
2022/06/02 11:55:42;;;;;;;5.10;3.10;;;18.10;99.90;;;;;;5070962;28;20577;-60
2022/06/02 11:58:39;;;;;;;7.13;3.20;;;18.40;99.90;;;;;;5069988;28;20204;-62
2022/06/02 12:01:40;;;;;;;3.80;3.27;;;18.70;99.90;;;;;;5070713;28;20276;-60
2022/06/02 12:04:48;;;;;;;5.30;3.20;;;18.60;99.90;;;;;;5070419;28;20220;-60
2022/06/02 12:07:46;;;;;;;4.10;3.17;;;18.50;99.90;;;;;;5070831;28;20205;-61
2022/06/02 12:10:41;;;;;;;3.20;2.90;;;18.10;99.90;;;;;;5068200;28;20259;-61
2022/06/02 12:13:13;;;;;;;5.27;3.47;;;18.00;99.90;;;;;;5070782;28;20574;-61
2022/06/02 12:16:21;;;;;;;3.13;2.57;;;17.80;99.90;;;;;;5070253;28;20228;-60
2022/06/02 12:19:07;;;;;;;4.60;2.53;;;17.40;99.90;;;;;;5013444;28;20209;-63
2022/06/02 12:21:50;;;;;;;3.10;2.80;;;17.50;99.90;;;;;;5069988;28;20205;-62
2022/06/02 12:25:01;;;;;;;3.50;3.20;;;17.70;99.90;;;;;;5070739;28;20631;-64
2022/06/02 12:27:52;;;;;;;3.67;2.90;;;17.80;99.90;;;;;;5027542;28;20738;-63
2022/06/02 12:30:37;;;;;;;4.00;2.57;;;18.10;99.90;;;;;;5069972;28;20231;-62
2022/06/02 12:33:34;;;;;;;3.83;2.90;;;18.50;99.90;;;;;;5070515;28;20224;-64
2022/06/02 12:36:29;;;;;;;3.83;2.37;;;18.70;99.90;;;;;;5070512;28;20266;-63
2022/06/02 12:39:29;;;;;;;3.40;2.20;;;19.10;99.90;;;;;;5066063;28;20683;-61
2022/06/02 12:42:47;;;;;;;3.30;2.57;;;19.40;99.90;;;;;;5069908;28;20205;-61
2022/06/02 12:45:38;;;;;;;2.60;2.27;;;19.70;99.90;;;;;;5074504;28;20205;-61
2022/06/02 12:48:36;;;;;;;4.87;2.40;;;19.50;99.90;;;;;;5073602;28;20208;-61
2022/06/02 12:51:19;;;;;;;3.73;2.47;;;19.30;99.90;;;;;;5073609;28;20266;-61
2022/06/02 12:54:12;;;;;;;3.03;2.33;;;19.20;99.90;;;;;;5073721;28;20232;-61
2022/06/02 12:57:26;;;;;;;3.23;2.50;;;19.20;99.90;;;;;;5073820;28;20208;-61
2022/06/02 13:00:26;;;;;;;2.93;1.80;;;19.00;99.90;;;;;;5036651;28;20216;-61
2022/06/02 13:03:35;;;;;;;2.73;2.20;;;19.20;99.90;;;;;;5065715;28;20262;-61
2022/06/02 13:06:27;;;;;;;3.87;2.30;;;19.30;99.90;;;;;;5073505;28;20204;-62
2022/06/02 13:09:26;;;;;;;4.37;2.37;;;19.40;99.90;;;;;;5073247;28;20209;-63
2022/06/02 13:12:39;;;;;;;2.93;2.27;;;19.50;99.90;;;;;;5073440;28;20205;-62
2022/06/02 13:15:50;;;;;;;3.40;2.50;;;19.60;99.90;;;;;;5031002;28;20237;-62
2022/06/02 13:18:36;;;;;;;2.40;2.10;;;19.70;99.90;;;;;;5044041;28;20209;-63
2022/06/02 13:21:50;;;;;;;2.47;2.23;;;19.60;99.90;;;;;;5053069;28;20209;-63
2022/06/02 13:24:45;;;;;;;3.13;2.17;;;19.50;99.90;;;;;;5053519;28;20700;-63
2022/06/02 13:27:53;;;;;;;4.13;2.00;;;19.50;99.90;;;;;;5053557;28;20209;-63
2022/06/02 13:30:53;;;;;;;2.40;2.00;;;19.70;99.90;;;;;;5056144;28;20216;-62
2022/06/02 13:33:50;;;;;;;2.30;2.10;;;19.90;99.90;;;;;;5062265;28;20259;-61
2022/06/02 13:36:37;;;;;;;2.20;1.80;;;20.00;99.90;;;;;;5073234;28;20240;-64
2022/06/02 13:39:36;;;;;;;2.50;2.30;;;20.00;99.90;;;;;;5070738;28;20292;-64
2022/06/02 13:42:45;;;;;;;3.23;2.90;;;19.90;99.90;;;;;;5072932;28;20254;-64
2022/06/02 13:46:00;;;;;;;2.00;1.90;;;19.70;99.90;;;;;;5034770;28;20199;-61
2022/06/02 13:49:06;;;;;;;2.10;1.80;;;19.60;99.90;;;;;;5030901;28;20210;-61
2022/06/02 13:52:04;;;;;;;2.63;2.33;;;19.70;99.90;;;;;;5073278;28;20263;-61
2022/06/02 13:58:14;;;;;;;3.13;2.43;;;19.70;99.90;;;;;;5073077;28;20204;-61
2022/06/02 14:01:02;;;;;;;2.63;2.43;;;19.70;99.90;;;;;;5073261;28;20205;-61
2022/06/02 14:03:54;;;;;;;2.77;2.37;;;19.60;99.90;;;;;;5073285;28;20229;-61
2022/06/02 14:06:23;;;;;;;3.07;2.70;;;19.60;99.90;;;;;;5072818;28;20663;-61
2022/06/02 14:09:48;;;;;;;2.53;2.17;;;19.70;99.90;;;;;;5073207;28;20565;-62
2022/06/02 14:12:34;;;;;;;3.27;2.17;;;19.80;99.90;;;;;;5048990;28;20667;-61
2022/06/02 14:15:14;;;;;;;11.23;7.43;;;20.00;99.90;;;;;;5072720;28;20711;-61
2022/06/02 14:18:07;;;;;;;3.70;2.60;;;20.20;99.90;;;;;;5072610;28;20235;-61
2022/06/02 14:20:40;;;;;;;3.00;2.63;;;20.40;99.90;;;;;;5072868;28;20671;-61
2022/06/02 14:23:21;;;;;;;2.83;2.63;;;20.50;99.90;;;;;;5073010;28;20714;-61
2022/06/02 14:25:59;;;;;;;2.67;2.47;;;20.20;99.90;;;;;;5072719;28;20216;-60